createdAt,value
2023-01-28T00:03:42.523Z,99298.52
2023-01-28T00:08:44.590Z,99295.39
2023-01-28T00:13:52.883Z,99289.90
2023-01-28T00:18:54.888Z,99295.52
2023-01-28T00:23:57.359Z,99292.11
2023-01-28T00:28:59.142Z,99292.35
2023-01-28T00:34:01.023Z,99294.09
2023-01-28T00:39:02.981Z,99295.91
2023-01-28T00:44:04.755Z,99299.67
2023-01-28T00:49:06.659Z,99298.98
2023-01-28T00:54:12.835Z,99298.23
2023-01-28T00:59:14.693Z,99296.27
2023-01-28T01:04:26.399Z,99294.77
2023-01-28T01:09:28.345Z,99302.89
2023-01-28T01:14:31.887Z,99302.67
2023-01-28T01:19:33.629Z,99305.48
2023-01-28T01:24:35.482Z,99306.91
2023-01-28T01:29:37.213Z,99313.29
2023-01-28T01:34:38.895Z,99315.19
2023-01-28T01:39:40.651Z,99322.91
2023-01-28T01:45:01.806Z,99318.91
2023-01-28T01:50:23.103Z,99319.23
2023-01-28T01:55:29.716Z,99322.23
2023-01-28T02:00:32.466Z,99326.42
2023-01-28T02:05:34.419Z,99326.39
2023-01-28T02:10:36.525Z,99327.20
2023-01-28T02:15:38.818Z,99326.63
2023-01-28T02:21:07.328Z,99323.11
2023-01-28T02:26:31.785Z,99325.14
2023-01-28T02:31:44.883Z,99328.12
2023-01-28T02:37:21.186Z,99332.17
2023-01-28T02:42:32.306Z,99337.75
2023-01-28T02:48:12.552Z,99337.17
2023-01-28T02:53:41.029Z,99341.42
2023-01-28T02:58:55.977Z,99346.94
2023-01-28T03:04:08.245Z,99346.86
2023-01-28T03:09:26.903Z,99350.45
2023-01-28T03:14:51.181Z,99348.96
2023-01-28T03:20:13.516Z,99349.16
2023-01-28T03:25:35.479Z,99350.32
2023-01-28T03:31:15.869Z,99350.09
2023-01-28T03:36:42.938Z,99350.89
2023-01-28T03:42:00.439Z,99352.65
2023-01-28T03:47:02.829Z,99358.75
2023-01-28T03:52:04.936Z,99355.30
2023-01-28T03:57:06.923Z,99350.70
2023-01-28T04:02:11.118Z,99346.09
2023-01-28T04:07:16.940Z,99346.66
2023-01-28T04:12:51.318Z,99351.11
2023-01-28T04:17:54.234Z,99353.63
2023-01-28T04:23:01.140Z,99354.89
2023-01-28T04:28:04.007Z,99352.26
2023-01-28T04:33:06.342Z,99351.23
2023-01-28T04:38:37.908Z,99357.47
2023-01-28T04:43:57.411Z,99353.92
2023-01-28T04:49:19.457Z,99356.95
2023-01-28T04:54:46.725Z,99364.29
2023-01-28T04:59:48.481Z,99366.17
2023-01-28T05:04:51.124Z,99363.52
2023-01-28T05:10:19.795Z,99367.01
2023-01-28T05:15:22.387Z,99363.59
2023-01-28T05:20:24.907Z,99364.29
2023-01-28T05:25:30.739Z,99369.93
2023-01-28T05:30:32.649Z,99373.80
2023-01-28T05:35:34.813Z,99382.48
2023-01-28T05:40:36.743Z,99385.96
2023-01-28T05:45:39.715Z,99384.29
2023-01-28T05:50:47.960Z,99387.83
2023-01-28T05:55:54.550Z,99381.66
2023-01-28T06:00:56.776Z,99393.89
2023-01-28T06:06:02.127Z,99402.52
2023-01-28T06:11:04.741Z,99407.95
2023-01-28T06:16:08.765Z,99381.64
2023-01-28T06:21:19.489Z,99424.44
2023-01-28T06:26:21.474Z,99429.50
2023-01-28T06:31:23.267Z,99437.67
2023-01-28T06:36:25.143Z,99440.68
2023-01-28T06:41:27.198Z,99443.52
2023-01-28T06:46:29.121Z,99445.30
2023-01-28T06:51:31.240Z,99449.40
2023-01-28T06:56:33.546Z,99453.14
2023-01-28T07:01:35.472Z,99459.17
2023-01-28T07:06:37.551Z,99462.89
2023-01-28T07:11:39.419Z,99467.31
2023-01-28T07:16:41.189Z,99475.44
2023-01-28T07:21:42.881Z,99471.19
2023-01-28T07:26:44.730Z,99479.34
2023-01-28T07:31:46.836Z,99486.27
2023-01-28T07:36:48.740Z,99493.06
2023-01-28T07:41:50.759Z,99495.51
2023-01-28T07:47:12.797Z,99499.89
2023-01-28T07:52:15.352Z,99498.23
2023-01-28T07:57:23.260Z,99499.83
2023-01-28T08:02:25.208Z,99501.21
2023-01-28T08:07:27.766Z,99509.13
2023-01-28T08:12:29.663Z,99510.46
2023-01-28T08:17:31.901Z,99513.75
2023-01-28T08:22:33.608Z,99520.34
2023-01-28T08:27:35.346Z,99523.48
2023-01-28T08:32:37.753Z,99527.73
2023-01-28T08:37:39.457Z,99528.02
2023-01-28T08:42:47.161Z,99519.89
2023-01-28T08:47:54.316Z,99524.58
2023-01-28T08:53:09.915Z,99524.51
2023-01-28T08:58:14.320Z,99531.14
2023-01-28T09:03:16.925Z,99530.06
2023-01-28T09:08:18.773Z,99528.03
2023-01-28T09:13:20.551Z,99537.20
2023-01-28T09:18:22.274Z,99536.08
2023-01-28T09:23:24.045Z,99542.33
2023-01-28T09:28:25.760Z,99541.73
2023-01-28T09:33:27.413Z,99545.86
2023-01-28T09:38:32.400Z,99547.23
2023-01-28T09:43:43.171Z,99553.83
2023-01-28T09:48:49.467Z,99551.03
2023-01-28T09:53:55.504Z,99545.15
2023-01-28T09:59:02.141Z,99536.55
2023-01-28T10:04:33.820Z,99532.69
2023-01-28T10:09:56.469Z,99530.45
2023-01-28T10:15:22.179Z,99532.83
2023-01-28T10:20:31.007Z,99528.18
2023-01-28T10:25:34.800Z,99534.42
2023-01-28T10:30:40.511Z,99528.62
2023-01-28T10:35:43.735Z,99527.58
2023-01-28T10:40:49.220Z,99526.60
2023-01-28T10:46:01.900Z,99524.89
2023-01-28T10:51:07.218Z,99524.02
2023-01-28T10:56:15.918Z,99528.73
2023-01-28T11:01:17.699Z,99526.42
2023-01-28T11:06:27.531Z,99528.98
2023-01-28T11:11:29.953Z,99530.66
2023-01-28T11:16:31.920Z,99527.94
2023-01-28T11:21:35.496Z,99525.67
2023-01-28T11:26:39.918Z,99522.45
2023-01-28T11:31:44.500Z,99517.44
2023-01-28T11:36:52.472Z,99517.30
2023-01-28T11:41:55.519Z,99516.24
2023-01-28T11:47:05.438Z,99518.18
2023-01-28T11:53:04.894Z,99513.13
2023-01-28T11:58:12.424Z,99506.33
2023-01-28T12:04:02.912Z,99507.16
2023-01-28T12:09:19.368Z,99511.16
2023-01-28T12:14:42.281Z,99508.67
2023-01-28T12:20:05.897Z,99505.21
2023-01-28T12:25:13.430Z,99499.27
2023-01-28T12:30:24.237Z,99502.53
2023-01-28T12:35:56.391Z,99502.02
2023-01-28T12:41:09.295Z,99501.54
2023-01-28T12:46:29.842Z,99508.94
2023-01-28T12:51:39.532Z,99512.15
2023-01-28T12:56:46.319Z,99511.20
2023-01-28T13:02:11.182Z,99512.27
2023-01-28T13:07:18.220Z,99515.42
2023-01-28T13:12:20.999Z,99519.77
2023-01-28T13:17:29.565Z,99518.96
2023-01-28T13:22:40.049Z,99521.06
2023-01-28T13:27:41.826Z,99525.54
2023-01-28T13:32:54.883Z,99525.64
2023-01-28T13:37:57.444Z,99525.55
2023-01-28T13:43:44.416Z,99530.88
2023-01-28T13:48:52.145Z,99535.83
2023-01-28T13:53:58.768Z,99545.70
2023-01-28T13:59:23.781Z,99543.30
2023-01-28T14:04:44.238Z,99542.34
2023-01-28T14:09:59.882Z,99543.39
2023-01-28T14:15:49.395Z,99550.67
2023-01-28T14:20:53.262Z,99551.08
2023-01-28T14:26:17.661Z,99553.58
2023-01-28T14:31:27.994Z,99556.27
2023-01-28T14:36:30.395Z,99556.24
2023-01-28T14:41:32.375Z,99553.35
2023-01-28T14:46:42.559Z,99566.07
2023-01-28T14:51:54.344Z,99574.02
2023-01-28T14:57:37.612Z,99573.77
2023-01-28T15:02:44.930Z,99576.95
2023-01-28T15:07:59.059Z,99580.59
2023-01-28T15:13:11.282Z,99585.52
2023-01-28T15:18:15.510Z,99587.84
2023-01-28T15:23:20.882Z,99595.65
2023-01-28T15:28:31.664Z,99591.88
2023-01-28T15:33:33.390Z,99601.83
2023-01-28T15:38:35.212Z,99606.66
2023-01-28T15:43:38.793Z,99610.90
2023-01-28T15:48:44.313Z,99621.17
2023-01-28T15:53:50.004Z,99627.77
2023-01-28T15:58:51.953Z,99639.79
2023-01-28T16:04:02.839Z,99640.38
2023-01-28T16:09:22.469Z,99639.02
2023-01-28T16:14:30.860Z,99647.27
2023-01-28T16:19:42.155Z,99642.48
2023-01-28T16:24:52.734Z,99641.92
2023-01-28T16:30:01.592Z,99647.66
2023-01-28T16:35:06.819Z,99647.05
2023-01-28T16:40:09.961Z,99656.20
2023-01-28T16:45:18.917Z,99653.81
2023-01-28T16:50:22.157Z,99657.02
2023-01-28T16:55:24.612Z,99655.71
2023-01-28T17:00:27.573Z,99660.42
2023-01-28T17:05:29.444Z,99665.43
2023-01-28T17:10:31.504Z,99669.25
2023-01-28T17:15:35.402Z,99671.39
2023-01-28T17:20:40.379Z,99665.48
2023-01-28T17:25:43.386Z,99662.17
2023-01-28T17:30:45.169Z,99662.08
2023-01-28T17:35:48.235Z,99668.66
2023-01-28T17:40:50.125Z,99673.41
2023-01-28T17:45:52.049Z,99677.83
2023-01-28T17:50:57.411Z,99679.75
2023-01-28T17:55:59.154Z,99682.28
2023-01-28T18:01:08.538Z,99688.41
2023-01-28T18:06:10.486Z,99698.57
2023-01-28T18:11:14.871Z,99697.37
2023-01-28T18:16:20.783Z,99696.95
2023-01-28T18:21:51.295Z,99697.04
2023-01-28T18:26:55.716Z,99699.81
2023-01-28T18:31:58.632Z,99704.92
2023-01-28T18:37:01.250Z,99699.56
2023-01-28T18:42:02.935Z,99705.62
2023-01-28T18:47:04.689Z,99706.14
2023-01-28T18:52:06.518Z,99709.50
2023-01-28T18:57:08.197Z,99715.02
2023-01-28T19:02:13.996Z,99718.06
2023-01-28T19:07:15.847Z,99714.43
2023-01-28T19:12:17.717Z,99724.96
2023-01-28T19:17:19.775Z,99725.66
2023-01-28T19:22:21.683Z,99724.56
2023-01-28T19:27:23.765Z,99733.44
2023-01-28T19:32:25.849Z,99735.48
2023-01-28T19:37:27.729Z,99736.71
2023-01-28T19:42:30.123Z,99732.17
2023-01-28T19:47:32.798Z,99732.95
2023-01-28T19:52:34.434Z,99736.77
2023-01-28T19:57:36.137Z,99744.80
2023-01-28T20:02:37.899Z,99746.96
2023-01-28T20:07:39.629Z,99754.33
2023-01-28T20:12:41.290Z,99759.73
2023-01-28T20:17:43.172Z,99765.02
2023-01-28T20:22:45.268Z,99767.79
2023-01-28T20:27:47.651Z,99771.64
2023-01-28T20:32:49.438Z,99768.88
2023-01-28T20:37:51.412Z,99767.39
2023-01-28T20:42:53.391Z,99772.36
2023-01-28T20:47:55.116Z,99774.80
2023-01-28T20:52:57.222Z,99780.92
2023-01-28T20:58:09.171Z,99784.47
2023-01-28T21:03:10.943Z,99789.39
2023-01-28T21:08:14.601Z,99782.15
2023-01-28T21:13:16.358Z,99781.09
2023-01-28T21:18:18.252Z,99790.61
2023-01-28T21:23:20.215Z,99795.77
2023-01-28T21:28:21.960Z,99801.41
2023-01-28T21:33:23.862Z,99803.18
2023-01-28T21:38:25.841Z,99808.30
2023-01-28T21:43:27.622Z,99813.20
2023-01-28T21:48:30.628Z,99809.84
2023-01-28T21:53:32.318Z,99819.61
2023-01-28T21:58:56.823Z,99811.41
2023-01-28T22:03:58.898Z,99809.33
2023-01-28T22:09:01.100Z,99812.42
2023-01-28T22:14:09.418Z,99814.38
2023-01-28T22:19:11.877Z,99814.95
2023-01-28T22:24:19.478Z,99822.05
2023-01-28T22:29:22.974Z,99834.23
2023-01-28T22:34:24.792Z,99834.82
2023-01-28T22:39:26.522Z,99846.30
2023-01-28T22:44:28.279Z,99846.49
2023-01-28T22:49:29.956Z,99846.89
2023-01-28T22:54:31.972Z,99848.20
2023-01-28T22:59:33.806Z,99844.55
2023-01-28T23:04:35.558Z,99843.67
2023-01-28T23:09:37.280Z,99842.30
2023-01-28T23:14:57.864Z,99840.23
2023-01-28T23:20:18.533Z,99832.37
2023-01-28T23:25:22.742Z,99828.91
2023-01-28T23:30:25.393Z,99827.95
2023-01-28T23:35:27.499Z,99823.74
2023-01-28T23:40:29.377Z,99820.95
2023-01-28T23:45:31.133Z,99824.72
2023-01-28T23:50:33.077Z,99826.61
2023-01-28T23:55:34.793Z,99824.79
